Flag for Canada

Past Weather in Greater Sudbury, Ontario, Canada — August 2017

Currently: 0 °F. Passing clouds. (Weather station: Sudbury, Canada). See more current weather

August 2017 Weather in Greater Sudbury — Graph

°F

High & Low Weather Summary for August 2017

 TemperatureHumidityPressure
High82 °F (Aug 1, 2:00 pm)100% (Aug 1, 4:00 am)30.35 "Hg (Aug 1, 4:00 am)
Low39 °F (Aug 25, 4:00 am)33% (Aug 16, 4:00 pm)29.50 "Hg (Aug 22, 3:00 pm)
Average61 °F81%29.98 "Hg
* Reported Aug 1 12:00 am — Aug 31 11:00 pm, Greater Sudbury. Weather by CustomWeather, © 2021

Note: Actual official high and low records may vary slightly from our data, if they occured in-between our weather recording intervals... More about our weather records

Greater Sudbury Weather History for August 1, 2017

Scroll right to see more
 ConditionsComfort  
Time TempWeatherWind HumidityBarometerVisibility
12:00 am
Tue, Aug 1
66 °FClear.6 mph68%30.09 "Hg15 mi
1:00 am66 °FClear.5 mph73%30.09 "Hg15 mi
2:00 am63 °FClear.6 mph88%30.09 "Hg15 mi
3:00 am63 °FClear.5 mph94%30.06 "Hg15 mi
4:00 am63 °FClear.6 mph100%30.06 "Hg10 mi
5:00 am61 °FClear.3 mph100%30.05 "Hg10 mi
6:00 am63 °FPassing clouds.5 mph94%30.05 "Hg15 mi
7:00 am63 °FPassing clouds.5 mph100%30.06 "Hg10 mi
7:22 am63 °FScattered clouds.5 mph100%30.06 "Hg10 mi
8:00 am64 °FPassing clouds.6 mph100%30.06 "Hg10 mi
9:00 am70 °FScattered clouds.8 mph83%30.06 "Hg20 mi
10:00 am73 °FScattered clouds.13 mph74%30.04 "Hg15 mi
11:00 am77 °FScattered clouds.13 mph69%30.03 "Hg20 mi
12:00 pm79 °FScattered clouds.12 mph65%30.02 "Hg20 mi
1:00 pm81 °FBroken clouds.12 mph62%30.01 "Hg20 mi
2:00 pm82 °FBroken clouds.16 mph55%29.98 "Hg20 mi
3:00 pm81 °FPartly sunny.18 mph58%29.97 "Hg20 mi
4:00 pm82 °FPartly sunny.15 mph58%29.94 "Hg20 mi
5:00 pm81 °FBroken clouds.17 mph58%29.96 "Hg20 mi
6:00 pm81 °FScattered clouds.16 mph58%29.96 "Hg20 mi
7:00 pm79 °FBroken clouds.7 mph54%29.98 "Hg20 mi
8:00 pm72 °FBroken clouds.9 mph69%29.98 "Hg20 mi
9:00 pm70 °FPartly cloudy.6 mph73%29.98 "Hg15 mi
10:00 pm68 °FPassing clouds.8 mph83%29.98 "Hg15 mi
11:00 pm68 °FPassing clouds.7 mph88%29.96 "Hg15 mi
Weather by CustomWeather, © 2021

See weather overview